createdAt,value
2022-09-17T00:01:33.194Z,10.43
2022-09-17T00:04:04.025Z,10.42
2022-09-17T00:06:35.709Z,10.40
2022-09-17T00:09:07.600Z,10.40
2022-09-17T00:11:39.937Z,10.41
2022-09-17T00:14:12.699Z,10.41
2022-09-17T00:16:49.319Z,10.41
2022-09-17T00:19:22.958Z,10.43
2022-09-17T00:21:51.993Z,10.48
2022-09-17T00:24:21.503Z,10.52
2022-09-17T00:26:50.347Z,10.54
2022-09-17T00:29:18.101Z,10.53
2022-09-17T00:31:45.866Z,10.51
2022-09-17T00:34:13.685Z,10.48
2022-09-17T00:36:41.789Z,10.49
2022-09-17T00:39:12.410Z,10.52
2022-09-17T00:41:40.492Z,10.59
2022-09-17T00:44:47.055Z,10.65
2022-09-17T00:47:38.811Z,10.71
2022-09-17T00:50:44.763Z,10.74
2022-09-17T00:53:17.151Z,10.78
2022-09-17T00:56:14.646Z,10.79
2022-09-17T00:58:42.458Z,10.80
2022-09-17T01:01:10.250Z,10.85
2022-09-17T01:03:38.049Z,10.85
2022-09-17T01:06:37.174Z,10.87
2022-09-17T01:09:32.032Z,10.89
2022-09-17T01:12:17.548Z,10.90
2022-09-17T01:15:30.629Z,10.86
2022-09-17T01:18:21.851Z,10.81
2022-09-17T01:21:32.266Z,10.72
2022-09-17T01:24:39.026Z,10.74
2022-09-17T01:27:55.281Z,10.77
2022-09-17T01:31:17.491Z,10.75
2022-09-17T01:34:26.134Z,10.71
2022-09-17T01:37:16.125Z,10.77
2022-09-17T01:40:21.006Z,10.76
2022-09-17T01:43:06.311Z,10.71
2022-09-17T01:45:42.867Z,10.73
2022-09-17T01:48:18.732Z,10.73
2022-09-17T01:50:59.397Z,10.76
2022-09-17T01:53:39.051Z,10.78
2022-09-17T01:56:10.674Z,10.76
2022-09-17T01:58:48.143Z,10.70
2022-09-17T02:01:20.370Z,10.67
2022-09-17T02:04:02.511Z,10.71
2022-09-17T02:06:35.974Z,10.70
2022-09-17T02:09:18.688Z,10.69
2022-09-17T02:11:56.291Z,10.69
2022-09-17T02:14:35.397Z,10.68
2022-09-17T02:17:27.124Z,10.57
2022-09-17T02:19:56.663Z,10.49
2022-09-17T02:22:36.008Z,10.43
2022-09-17T02:25:31.403Z,10.41
2022-09-17T02:28:12.355Z,10.47
2022-09-17T02:30:40.499Z,10.41
2022-09-17T02:33:13.825Z,10.40
2022-09-17T02:35:44.141Z,10.43
2022-09-17T02:38:11.905Z,10.44
2022-09-17T02:40:49.651Z,10.44
2022-09-17T02:43:33.599Z,10.48
2022-09-17T02:46:45.652Z,10.40
2022-09-17T02:49:52.443Z,10.39
2022-09-17T02:52:42.772Z,10.43
2022-09-17T02:55:51.113Z,10.39
2022-09-17T02:58:41.315Z,10.34
2022-09-17T03:01:21.021Z,10.37
2022-09-17T03:03:51.223Z,10.36
2022-09-17T03:06:19.265Z,10.40
2022-09-17T03:08:47.815Z,10.44
2022-09-17T03:11:15.563Z,10.41
2022-09-17T03:13:43.419Z,10.45
2022-09-17T03:16:11.254Z,10.43
2022-09-17T03:18:39.073Z,10.46
2022-09-17T03:21:06.803Z,10.47
2022-09-17T03:23:34.633Z,10.47
2022-09-17T03:26:02.349Z,10.43
2022-09-17T03:28:30.023Z,10.46
2022-09-17T03:30:57.752Z,10.48
2022-09-17T03:33:25.842Z,10.50
2022-09-17T03:35:53.628Z,10.46
2022-09-17T03:38:21.936Z,10.41
2022-09-17T03:41:04.941Z,10.40
2022-09-17T03:43:32.913Z,10.41
2022-09-17T03:46:00.921Z,10.42
2022-09-17T03:48:30.327Z,10.39
2022-09-17T03:50:58.266Z,10.41
2022-09-17T03:53:25.951Z,10.43
2022-09-17T03:55:53.683Z,10.47
2022-09-17T03:58:21.413Z,10.52
2022-09-17T04:00:53.152Z,10.49
2022-09-17T04:03:21.502Z,10.51
2022-09-17T04:05:49.472Z,10.46
2022-09-17T04:08:17.898Z,10.47
2022-09-17T04:10:46.815Z,10.47
2022-09-17T04:13:16.656Z,10.52
2022-09-17T04:15:46.353Z,10.56
2022-09-17T04:18:14.599Z,10.55
2022-09-17T04:20:43.135Z,10.56
2022-09-17T04:23:12.329Z,10.56
2022-09-17T04:25:40.198Z,10.54
2022-09-17T04:28:07.971Z,10.52
2022-09-17T04:30:36.193Z,10.54
2022-09-17T04:33:04.778Z,10.53
2022-09-17T04:35:32.554Z,10.57
2022-09-17T04:38:00.719Z,10.61
2022-09-17T04:40:29.619Z,10.61
2022-09-17T04:42:59.859Z,10.63
2022-09-17T04:45:27.544Z,10.64
2022-09-17T04:47:56.071Z,10.69
2022-09-17T04:50:23.859Z,10.69
2022-09-17T04:52:51.698Z,10.66
2022-09-17T04:55:19.558Z,10.66
2022-09-17T04:57:49.354Z,10.70
2022-09-17T05:00:19.286Z,10.69
2022-09-17T05:02:50.641Z,10.73
2022-09-17T05:05:19.425Z,10.76
2022-09-17T05:07:47.346Z,10.75
2022-09-17T05:10:18.018Z,10.76
2022-09-17T05:12:54.417Z,10.78
2022-09-17T05:15:25.098Z,10.77
2022-09-17T05:17:52.781Z,10.75
2022-09-17T05:20:20.912Z,10.72
2022-09-17T05:22:51.793Z,10.69
2022-09-17T05:25:25.551Z,10.68
2022-09-17T05:27:56.185Z,10.72
2022-09-17T05:30:23.988Z,10.75
2022-09-17T05:33:03.715Z,10.74
2022-09-17T05:35:32.218Z,10.75
2022-09-17T05:38:04.273Z,10.76
2022-09-17T05:40:35.547Z,10.80
2022-09-17T05:43:06.830Z,10.82
2022-09-17T05:45:35.634Z,10.91
2022-09-17T05:48:06.410Z,10.98
2022-09-17T05:50:34.265Z,10.97
2022-09-17T05:53:08.976Z,11.00
2022-09-17T05:55:36.822Z,11.01
2022-09-17T05:58:16.814Z,10.99
2022-09-17T06:00:47.967Z,10.98
2022-09-17T06:03:18.498Z,11.01
2022-09-17T06:05:59.275Z,11.12
2022-09-17T06:08:28.965Z,11.21
2022-09-17T06:11:01.608Z,11.22
2022-09-17T06:13:31.025Z,11.21
2022-09-17T06:15:59.740Z,11.18
2022-09-17T06:18:29.892Z,11.20
2022-09-17T06:21:02.156Z,11.19
2022-09-17T06:23:37.239Z,11.18
2022-09-17T06:26:06.444Z,11.20
2022-09-17T06:28:41.275Z,11.20
2022-09-17T06:31:13.096Z,11.22
2022-09-17T06:33:41.289Z,11.27
2022-09-17T06:36:14.581Z,11.32
2022-09-17T06:38:42.797Z,11.41
2022-09-17T06:41:11.126Z,11.46
2022-09-17T06:43:38.889Z,11.54
2022-09-17T06:46:08.968Z,11.61
2022-09-17T06:48:38.478Z,11.61
2022-09-17T06:51:10.616Z,11.54
2022-09-17T06:53:39.450Z,11.54
2022-09-17T06:56:09.028Z,11.49
2022-09-17T06:58:37.786Z,11.52
2022-09-17T07:01:06.113Z,11.60
2022-09-17T07:03:34.610Z,11.62
2022-09-17T07:06:02.985Z,11.70
2022-09-17T07:08:34.563Z,11.68
2022-09-17T07:11:02.624Z,11.64
2022-09-17T07:13:30.476Z,11.68
2022-09-17T07:16:01.745Z,11.69
2022-09-17T07:18:30.630Z,11.75
2022-09-17T07:21:05.421Z,11.86
2022-09-17T07:23:36.510Z,11.94
2022-09-17T07:26:14.505Z,12.04
2022-09-17T07:28:44.022Z,12.11
2022-09-17T07:31:16.363Z,12.08
2022-09-17T07:33:45.423Z,12.18
2022-09-17T07:36:17.690Z,12.29
2022-09-17T07:38:45.504Z,12.42
2022-09-17T07:41:16.346Z,12.46
2022-09-17T07:43:44.988Z,12.52
2022-09-17T07:46:19.126Z,12.55
2022-09-17T07:48:48.916Z,12.52
2022-09-17T07:51:25.645Z,12.52
2022-09-17T07:53:55.922Z,12.48
2022-09-17T07:56:26.314Z,12.44
2022-09-17T07:58:55.739Z,12.50
2022-09-17T08:01:23.912Z,12.48
2022-09-17T08:03:54.304Z,12.40
2022-09-17T08:06:28.210Z,12.50
2022-09-17T08:08:58.852Z,12.68
2022-09-17T08:14:16.905Z,12.68
2022-09-17T08:16:47.038Z,12.83
2022-09-17T08:19:15.092Z,13.11
2022-09-17T08:21:42.867Z,13.35
2022-09-17T08:24:10.661Z,13.37
2022-09-17T08:26:39.729Z,13.51
2022-09-17T08:29:07.786Z,13.41
2022-09-17T08:31:35.798Z,13.35
2022-09-17T08:34:09.287Z,13.38
2022-09-17T08:36:37.859Z,13.39
2022-09-17T08:39:05.792Z,13.42
2022-09-17T08:42:01.776Z,13.46
2022-09-17T08:44:42.600Z,13.57
2022-09-17T08:47:15.266Z,13.64
2022-09-17T08:49:52.288Z,13.77
2022-09-17T08:53:06.498Z,13.78
2022-09-17T08:55:45.747Z,13.71
2022-09-17T08:58:56.071Z,13.85
2022-09-17T09:02:00.653Z,14.05
2022-09-17T09:05:02.104Z,14.35
2022-09-17T09:07:42.407Z,14.69
2022-09-17T09:10:31.162Z,14.53
2022-09-17T09:13:01.343Z,14.58
2022-09-17T09:15:45.337Z,14.54
2022-09-17T09:18:26.059Z,14.62
2022-09-17T09:21:07.301Z,14.63
2022-09-17T09:23:58.561Z,14.65
2022-09-17T09:26:49.127Z,14.80
2022-09-17T09:29:33.927Z,15.16
2022-09-17T09:32:26.342Z,15.32
2022-09-17T09:34:56.001Z,15.31
2022-09-17T09:37:28.219Z,15.26
2022-09-17T09:40:06.244Z,15.19
2022-09-17T09:42:38.925Z,15.25
2022-09-17T09:45:16.883Z,15.57
2022-09-17T09:47:59.675Z,15.61
2022-09-17T09:51:07.281Z,15.76
2022-09-17T09:54:06.014Z,15.59
2022-09-17T09:57:14.023Z,15.95
2022-09-17T09:59:41.845Z,16.18
2022-09-17T10:02:10.466Z,16.16
2022-09-17T10:04:39.049Z,16.46
2022-09-17T10:07:10.311Z,16.71
2022-09-17T10:09:45.843Z,16.49
2022-09-17T10:12:13.541Z,16.69
2022-09-17T10:14:46.852Z,17.02
2022-09-17T10:17:23.925Z,17.40
2022-09-17T10:20:11.207Z,17.21
2022-09-17T10:22:46.700Z,17.22
2022-09-17T10:25:29.531Z,17.13
2022-09-17T10:27:59.729Z,16.99
2022-09-17T10:30:28.144Z,17.17
2022-09-17T10:33:28.807Z,17.35
2022-09-17T10:36:06.316Z,17.86
2022-09-17T10:38:38.828Z,18.05
2022-09-17T10:41:21.870Z,17.84
2022-09-17T10:43:49.994Z,17.48
2022-09-17T10:46:29.542Z,17.06
2022-09-17T10:49:27.210Z,16.80
2022-09-17T10:52:12.567Z,16.70
2022-09-17T10:55:09.934Z,16.67
2022-09-17T10:58:05.770Z,16.64
2022-09-17T11:01:19.546Z,16.48
2022-09-17T11:04:42.105Z,16.87
2022-09-17T11:07:34.769Z,17.00
2022-09-17T11:10:14.734Z,17.53
2022-09-17T11:13:10.600Z,17.71
2022-09-17T11:16:39.473Z,18.08
2022-09-17T11:19:42.460Z,18.53
2022-09-17T11:22:27.554Z,18.72
2022-09-17T11:25:24.538Z,18.84
2022-09-17T11:28:40.752Z,18.84
2022-09-17T11:31:38.545Z,18.46
2022-09-17T11:34:47.584Z,18.32
2022-09-17T11:37:59.097Z,17.92
2022-09-17T11:41:04.327Z,17.53
2022-09-17T11:43:37.422Z,16.69
2022-09-17T11:46:21.076Z,16.69
2022-09-17T11:48:58.118Z,16.82
2022-09-17T11:51:48.899Z,16.84
2022-09-17T11:54:42.681Z,17.19
2022-09-17T11:57:16.966Z,16.68
2022-09-17T11:59:54.127Z,16.69
2022-09-17T12:02:30.916Z,17.14
2022-09-17T12:05:09.600Z,17.64
2022-09-17T12:08:14.523Z,17.69
2022-09-17T12:11:02.006Z,18.43
2022-09-17T12:13:46.558Z,18.50
2022-09-17T12:16:25.849Z,18.54
2022-09-17T12:19:23.945Z,18.86
2022-09-17T12:22:02.122Z,18.74
2022-09-17T12:24:32.386Z,18.17
2022-09-17T12:27:36.910Z,19.84
2022-09-17T12:30:32.285Z,19.60
2022-09-17T12:33:46.063Z,18.70
2022-09-17T12:36:40.163Z,18.25
2022-09-17T12:39:40.831Z,18.50
2022-09-17T12:42:52.247Z,18.36
2022-09-17T12:45:49.914Z,18.33
2022-09-17T12:48:48.152Z,17.87
2022-09-17T12:51:59.980Z,17.79
2022-09-17T12:54:57.858Z,18.02
2022-09-17T12:57:59.060Z,17.57
2022-09-17T13:00:27.505Z,17.50
2022-09-17T13:03:34.652Z,17.67
2022-09-17T13:06:51.355Z,17.77
2022-09-17T13:09:49.760Z,17.41
2022-09-17T13:12:56.456Z,17.24
2022-09-17T13:15:42.334Z,17.15
2022-09-17T13:18:29.574Z,17.26
2022-09-17T13:21:14.042Z,17.95
2022-09-17T13:23:49.848Z,18.76
2022-09-17T13:26:22.903Z,18.43
2022-09-17T13:28:52.326Z,17.49
2022-09-17T13:31:44.529Z,17.30
2022-09-17T13:34:17.429Z,17.11
2022-09-17T13:36:53.840Z,16.80
2022-09-17T13:39:38.599Z,16.59
2022-09-17T13:42:22.033Z,16.50
2022-09-17T13:45:13.192Z,16.42
2022-09-17T13:48:00.750Z,16.02
2022-09-17T13:50:38.535Z,15.77
2022-09-17T13:53:15.192Z,15.65
2022-09-17T13:55:53.106Z,15.61
2022-09-17T13:58:20.749Z,15.87
2022-09-17T14:01:12.490Z,16.06
2022-09-17T14:03:48.429Z,15.66
2022-09-17T14:06:18.727Z,15.54
2022-09-17T14:08:47.397Z,15.54
2022-09-17T14:11:24.130Z,15.79
2022-09-17T14:13:53.186Z,15.75
2022-09-17T14:16:37.032Z,15.89
2022-09-17T14:19:51.865Z,16.21
2022-09-17T14:22:29.846Z,16.45
2022-09-17T14:24:58.362Z,16.19
2022-09-17T14:27:58.378Z,16.33
2022-09-17T14:30:34.316Z,15.97
2022-09-17T14:33:19.310Z,15.59
2022-09-17T14:35:50.386Z,15.50
2022-09-17T14:38:34.218Z,15.71
2022-09-17T14:41:05.694Z,16.93
2022-09-17T14:43:45.622Z,17.38
2022-09-17T14:46:39.706Z,17.08
2022-09-17T14:49:26.643Z,16.57
2022-09-17T14:51:56.964Z,16.30
2022-09-17T14:54:35.118Z,16.08
2022-09-17T14:57:10.308Z,16.32
2022-09-17T14:59:47.918Z,16.43
2022-09-17T15:02:45.952Z,16.48
2022-09-17T15:05:22.042Z,16.30
2022-09-17T15:07:50.718Z,16.10
2022-09-17T15:10:22.647Z,15.81
2022-09-17T15:12:51.491Z,15.72
2022-09-17T15:15:24.561Z,15.56
2022-09-17T15:17:54.463Z,15.45
2022-09-17T15:20:31.371Z,15.79
2022-09-17T15:23:23.945Z,16.16
2022-09-17T15:25:56.607Z,16.23
2022-09-17T15:28:42.304Z,16.48
2022-09-17T15:31:19.200Z,16.53
2022-09-17T15:33:47.498Z,16.25
2022-09-17T15:36:27.504Z,16.22
2022-09-17T15:38:55.623Z,16.20
2022-09-17T15:41:34.652Z,16.19
2022-09-17T15:44:31.249Z,16.00
2022-09-17T15:47:52.174Z,15.76
2022-09-17T15:50:25.992Z,15.59
2022-09-17T15:53:08.572Z,15.52
2022-09-17T15:55:43.698Z,15.46
2022-09-17T15:58:29.717Z,15.36
2022-09-17T16:01:15.803Z,15.15
2022-09-17T16:03:44.390Z,15.14
2022-09-17T16:06:18.383Z,15.13
2022-09-17T16:08:54.217Z,15.19
2022-09-17T16:11:25.839Z,15.17
2022-09-17T16:13:56.864Z,15.14
2022-09-17T16:16:42.601Z,15.15
2022-09-17T16:19:10.566Z,15.15
2022-09-17T16:21:38.381Z,15.10
2022-09-17T16:24:06.274Z,15.05
2022-09-17T16:26:35.167Z,15.03
2022-09-17T16:29:07.488Z,14.98
2022-09-17T16:31:35.259Z,14.92
2022-09-17T16:34:03.214Z,14.86
2022-09-17T16:36:32.122Z,14.78
2022-09-17T16:39:01.113Z,14.69
2022-09-17T16:41:28.855Z,14.67
2022-09-17T16:43:57.296Z,14.65
2022-09-17T16:46:25.558Z,14.68
2022-09-17T16:48:53.451Z,14.66
2022-09-17T16:51:21.271Z,14.67
2022-09-17T16:53:50.224Z,14.65
2022-09-17T16:56:17.974Z,14.69
2022-09-17T16:58:45.686Z,14.66
2022-09-17T17:01:16.188Z,14.63
2022-09-17T17:03:45.676Z,14.61
2022-09-17T17:06:18.826Z,14.60
2022-09-17T17:08:47.977Z,14.57
2022-09-17T17:11:15.872Z,14.54
2022-09-17T17:13:45.159Z,14.52
2022-09-17T17:16:15.028Z,14.50
2022-09-17T17:18:44.037Z,14.47
2022-09-17T17:21:14.388Z,14.43
2022-09-17T17:23:47.070Z,14.37
2022-09-17T17:26:16.740Z,14.24
2022-09-17T17:28:44.578Z,14.25
2022-09-17T17:31:12.375Z,14.14
2022-09-17T17:33:40.380Z,14.10
2022-09-17T17:36:09.586Z,14.11
2022-09-17T17:38:37.632Z,14.00
2022-09-17T17:41:09.633Z,13.94
2022-09-17T17:43:37.939Z,13.85
2022-09-17T17:46:08.528Z,13.78
2022-09-17T17:48:37.034Z,13.69
2022-09-17T17:51:10.119Z,13.58
2022-09-17T17:53:42.423Z,13.57
2022-09-17T17:56:11.823Z,13.40
2022-09-17T17:58:40.789Z,13.34
2022-09-17T18:01:24.073Z,13.36
2022-09-17T18:04:00.512Z,13.32
2022-09-17T18:06:30.151Z,13.41
2022-09-17T18:08:57.983Z,13.37
2022-09-17T18:11:26.419Z,13.45
2022-09-17T18:13:57.622Z,13.47
2022-09-17T18:16:25.329Z,13.47
2022-09-17T18:19:00.123Z,13.47
2022-09-17T18:21:27.949Z,13.42
2022-09-17T18:23:55.646Z,13.39
2022-09-17T18:26:27.112Z,13.36
2022-09-17T18:28:56.143Z,13.34
2022-09-17T18:31:28.322Z,13.35
2022-09-17T18:34:02.523Z,13.30
2022-09-17T18:36:34.284Z,13.29
2022-09-17T18:41:53.335Z,13.18
2022-09-17T18:44:22.227Z,13.15
2022-09-17T18:46:51.119Z,13.17
2022-09-17T18:49:19.359Z,13.20
2022-09-17T18:51:47.116Z,13.19
2022-09-17T18:54:14.874Z,13.20
2022-09-17T18:56:42.786Z,13.17
2022-09-17T18:59:10.947Z,13.15
2022-09-17T19:01:38.912Z,13.15
2022-09-17T19:04:11.160Z,13.12
2022-09-17T19:06:39.006Z,13.11
2022-09-17T19:09:07.148Z,13.09
2022-09-17T19:11:36.313Z,13.04
2022-09-17T19:14:04.216Z,12.96
2022-09-17T19:16:32.310Z,12.86
2022-09-17T19:19:00.326Z,12.80
2022-09-17T19:21:28.533Z,12.76
2022-09-17T19:23:56.276Z,12.73
2022-09-17T19:26:27.019Z,12.66
2022-09-17T19:28:58.451Z,12.61
2022-09-17T19:31:27.162Z,12.56
2022-09-17T19:33:56.566Z,12.51
2022-09-17T19:36:24.464Z,12.48
2022-09-17T19:38:52.240Z,12.45
2022-09-17T19:41:25.500Z,12.43
2022-09-17T19:43:57.149Z,12.42
2022-09-17T19:46:27.092Z,12.44
2022-09-17T19:48:57.275Z,12.43
2022-09-17T19:51:28.375Z,12.48
2022-09-17T19:53:57.121Z,12.51
2022-09-17T19:56:27.480Z,12.50
2022-09-17T19:58:56.768Z,12.49
2022-09-17T20:01:24.879Z,12.49
2022-09-17T20:03:55.986Z,12.48
2022-09-17T20:06:24.026Z,12.42
2022-09-17T20:08:54.586Z,12.42
2022-09-17T20:11:25.127Z,12.41
2022-09-17T20:13:58.573Z,12.31
2022-09-17T20:16:26.930Z,12.27
2022-09-17T20:18:55.039Z,12.16
2022-09-17T20:21:29.427Z,12.07
2022-09-17T20:23:58.391Z,12.01
2022-09-17T20:26:28.011Z,11.96
2022-09-17T20:28:55.902Z,11.91
2022-09-17T20:31:29.429Z,11.84
2022-09-17T20:34:00.925Z,11.74
2022-09-17T20:36:33.368Z,11.74
2022-09-17T20:39:22.420Z,11.69
2022-09-17T20:41:49.714Z,11.63
2022-09-17T20:44:17.910Z,11.60
2022-09-17T20:46:46.147Z,11.55
2022-09-17T20:49:13.977Z,11.51
2022-09-17T20:51:41.681Z,11.49
2022-09-17T20:54:10.135Z,11.47
2022-09-17T20:56:38.007Z,11.41
2022-09-17T20:59:15.100Z,11.36
2022-09-17T21:01:45.641Z,11.32
2022-09-17T21:04:19.957Z,11.27
2022-09-17T21:06:52.480Z,11.26
2022-09-17T21:09:20.678Z,11.22
2022-09-17T21:11:49.365Z,11.21
2022-09-17T21:14:18.237Z,11.20
2022-09-17T21:16:48.887Z,11.15
2022-09-17T21:19:16.764Z,11.10
2022-09-17T21:21:45.531Z,11.05
2022-09-17T21:24:13.361Z,11.02
2022-09-17T21:26:41.105Z,10.98
2022-09-17T21:29:09.617Z,10.92
2022-09-17T21:31:38.191Z,10.86
2022-09-17T21:34:10.120Z,10.79
2022-09-17T21:36:40.945Z,10.78
2022-09-17T21:39:15.571Z,10.72
2022-09-17T21:41:45.728Z,10.65
2022-09-17T21:44:13.624Z,10.62
2022-09-17T21:46:42.811Z,10.60
2022-09-17T21:49:13.581Z,10.57
2022-09-17T21:51:43.125Z,10.52
2022-09-17T21:54:17.660Z,10.50
2022-09-17T21:56:46.835Z,10.47
2022-09-17T21:59:16.491Z,10.45
2022-09-17T22:01:47.957Z,10.40
2022-09-17T22:04:22.057Z,10.37
2022-09-17T22:06:50.319Z,10.35
2022-09-17T22:09:22.252Z,10.31
2022-09-17T22:11:51.397Z,10.26
2022-09-17T22:14:23.371Z,10.23
2022-09-17T22:16:55.195Z,10.16
2022-09-17T22:19:24.879Z,10.16
2022-09-17T22:21:55.622Z,10.15
2022-09-17T22:24:25.029Z,10.11
2022-09-17T22:26:57.703Z,10.03
2022-09-17T22:29:30.145Z,9.96
2022-09-17T22:31:57.881Z,9.92
2022-09-17T22:34:26.491Z,9.84
2022-09-17T22:36:54.256Z,9.72
2022-09-17T22:39:22.340Z,9.69
2022-09-17T22:41:50.451Z,9.66
2022-09-17T22:44:19.860Z,9.62
2022-09-17T22:46:51.519Z,9.60
2022-09-17T22:49:20.210Z,9.56
2022-09-17T22:51:48.146Z,9.55
2022-09-17T22:54:18.186Z,9.54
2022-09-17T22:56:48.353Z,9.52
2022-09-17T22:59:18.183Z,9.53
2022-09-17T23:01:46.755Z,9.47
2022-09-17T23:04:14.844Z,9.43
2022-09-17T23:06:42.562Z,9.39
2022-09-17T23:09:12.817Z,9.35
2022-09-17T23:11:41.248Z,9.30
2022-09-17T23:14:13.204Z,9.31
2022-09-17T23:16:47.727Z,9.31
2022-09-17T23:19:19.251Z,9.28
2022-09-17T23:21:47.218Z,9.22
2022-09-17T23:24:21.089Z,9.23
2022-09-17T23:26:49.895Z,9.22
2022-09-17T23:29:18.426Z,9.20
2022-09-17T23:31:46.201Z,9.17
2022-09-17T23:34:14.089Z,9.16
2022-09-17T23:36:41.879Z,9.13
2022-09-17T23:39:11.940Z,9.10
2022-09-17T23:41:43.171Z,9.09
2022-09-17T23:44:15.729Z,9.12
2022-09-17T23:46:46.329Z,9.11
2022-09-17T23:49:15.561Z,9.15
2022-09-17T23:51:44.048Z,9.15
2022-09-17T23:54:11.814Z,9.13
2022-09-17T23:56:39.618Z,9.10
2022-09-17T23:59:09.980Z,9.08
